sensor_id;sensor_type;location;lat;lon;timestamp;pressure;altitude;pressure_sealevel;temperature;humidity
58243;BME280;50118;53.232;8.252;2022-11-15T00:01:25;100860.91;;;5.49;100.00
58243;BME280;50118;53.232;8.252;2022-11-15T00:03:51;100865.09;;;5.51;100.00
58243;BME280;50118;53.232;8.252;2022-11-15T00:06:16;100861.44;;;5.41;100.00
58243;BME280;50118;53.232;8.252;2022-11-15T00:08:41;100865.88;;;5.28;100.00
58243;BME280;50118;53.232;8.252;2022-11-15T00:11:09;100871.63;;;5.21;100.00
58243;BME280;50118;53.232;8.252;2022-11-15T00:13:36;100863.91;;;5.05;100.00
58243;BME280;50118;53.232;8.252;2022-11-15T00:16:02;100853.16;;;4.96;100.00
58243;BME280;50118;53.232;8.252;2022-11-15T00:18:29;100859.06;;;4.86;100.00
58243;BME280;50118;53.232;8.252;2022-11-15T00:20:56;100860.97;;;4.84;100.00
58243;BME280;50118;53.232;8.252;2022-11-15T00:23:21;100862.03;;;4.82;100.00
58243;BME280;50118;53.232;8.252;2022-11-15T00:25:47;100861.81;;;4.72;100.00
58243;BME280;50118;53.232;8.252;2022-11-15T00:28:12;100858.84;;;4.64;100.00
58243;BME280;50118;53.232;8.252;2022-11-15T00:30:38;100857.66;;;4.68;100.00
58243;BME280;50118;53.232;8.252;2022-11-15T00:33:04;100864.25;;;4.75;100.00
58243;BME280;50118;53.232;8.252;2022-11-15T00:35:34;100848.94;;;4.80;100.00
58243;BME280;50118;53.232;8.252;2022-11-15T00:38:00;100856.94;;;4.92;100.00
58243;BME280;50118;53.232;8.252;2022-11-15T00:40:26;100863.09;;;4.92;100.00
58243;BME280;50118;53.232;8.252;2022-11-15T00:42:51;100866.56;;;4.93;100.00
58243;BME280;50118;53.232;8.252;2022-11-15T00:45:17;100867.09;;;4.98;100.00
58243;BME280;50118;53.232;8.252;2022-11-15T00:47:45;100863.59;;;5.10;100.00
58243;BME280;50118;53.232;8.252;2022-11-15T00:50:12;100867.19;;;5.09;100.00
58243;BME280;50118;53.232;8.252;2022-11-15T00:52:37;100868.56;;;5.15;100.00
58243;BME280;50118;53.232;8.252;2022-11-15T00:55:03;100867.72;;;5.14;100.00
58243;BME280;50118;53.232;8.252;2022-11-15T00:57:28;100864.66;;;5.08;100.00
58243;BME280;50118;53.232;8.252;2022-11-15T00:59:54;100871.31;;;5.13;100.00
58243;BME280;50118;53.232;8.252;2022-11-15T01:02:19;100861.16;;;5.07;100.00
58243;BME280;50118;53.232;8.252;2022-11-15T01:04:44;100856.13;;;5.04;100.00
58243;BME280;50118;53.232;8.252;2022-11-15T01:07:10;100865.59;;;5.19;100.00
58243;BME280;50118;53.232;8.252;2022-11-15T01:09:35;100860.50;;;5.29;100.00
58243;BME280;50118;53.232;8.252;2022-11-15T01:12:01;100862.41;;;5.27;100.00
58243;BME280;50118;53.232;8.252;2022-11-15T01:14:26;100856.28;;;5.27;100.00
58243;BME280;50118;53.232;8.252;2022-11-15T01:16:52;100855.22;;;5.29;100.00
58243;BME280;50118;53.232;8.252;2022-11-15T01:19:17;100868.66;;;5.26;100.00
58243;BME280;50118;53.232;8.252;2022-11-15T01:21:42;100855.47;;;5.26;100.00
58243;BME280;50118;53.232;8.252;2022-11-15T01:24:11;100861.38;;;5.17;100.00
58243;BME280;50118;53.232;8.252;2022-11-15T01:26:37;100862.44;;;5.14;100.00
58243;BME280;50118;53.232;8.252;2022-11-15T01:29:02;100854.41;;;5.03;100.00
58243;BME280;50118;53.232;8.252;2022-11-15T01:31:28;100844.28;;;4.97;100.00
58243;BME280;50118;53.232;8.252;2022-11-15T01:33:53;100847.34;;;4.91;100.00
58243;BME280;50118;53.232;8.252;2022-11-15T01:36:21;100843.13;;;4.88;100.00
58243;BME280;50118;53.232;8.252;2022-11-15T01:38:47;100839.53;;;4.89;100.00
58243;BME280;50118;53.232;8.252;2022-11-15T01:41:23;100828.94;;;5.02;100.00
58243;BME280;50118;53.232;8.252;2022-11-15T01:43:53;100826.72;;;5.09;100.00
58243;BME280;50118;53.232;8.252;2022-11-15T01:46:32;100822.94;;;5.00;100.00
58243;BME280;50118;53.232;8.252;2022-11-15T01:49:03;100812.59;;;4.97;100.00
58243;BME280;50118;53.232;8.252;2022-11-15T01:51:31;100812.00;;;4.80;100.00
58243;BME280;50118;53.232;8.252;2022-11-15T01:54:06;100814.31;;;4.72;100.00
58243;BME280;50118;53.232;8.252;2022-11-15T01:56:40;100819.38;;;4.62;100.00
58243;BME280;50118;53.232;8.252;2022-11-15T01:59:09;100803.31;;;4.53;100.00
58243;BME280;50118;53.232;8.252;2022-11-15T02:01:36;100799.72;;;4.54;100.00
58243;BME280;50118;53.232;8.252;2022-11-15T02:04:13;100799.19;;;4.48;100.00
58243;BME280;50118;53.232;8.252;2022-11-15T02:06:41;100798.88;;;4.40;100.00
58243;BME280;50118;53.232;8.252;2022-11-15T02:09:06;100806.97;;;4.37;100.00
58243;BME280;50118;53.232;8.252;2022-11-15T02:11:32;100801.22;;;4.45;100.00
58243;BME280;50118;53.232;8.252;2022-11-15T02:13:58;100798.88;;;4.40;100.00
58243;BME280;50118;53.232;8.252;2022-11-15T02:22:20;100792.53;;;4.56;100.00
58243;BME280;50118;53.232;8.252;2022-11-15T02:30:38;100780.31;;;4.80;100.00
58243;BME280;50118;53.232;8.252;2022-11-15T02:33:34;100785.88;;;4.89;100.00
58243;BME280;50118;53.232;8.252;2022-11-15T02:38:56;100780.38;;;5.04;100.00
58243;BME280;50118;53.232;8.252;2022-11-15T02:41:31;100783.66;;;5.08;100.00
58243;BME280;50118;53.232;8.252;2022-11-15T02:44:05;100784.16;;;5.13;100.00
58243;BME280;50118;53.232;8.252;2022-11-15T02:49:34;100777.16;;;5.25;100.00
58243;BME280;50118;53.232;8.252;2022-11-15T02:52:00;100768.69;;;5.33;100.00
58243;BME280;50118;53.232;8.252;2022-11-15T02:54:29;100783.38;;;5.37;100.00
58243;BME280;50118;53.232;8.252;2022-11-15T02:57:03;100772.59;;;5.40;100.00
58243;BME280;50118;53.232;8.252;2022-11-15T03:05:04;100776.34;;;5.49;100.00
58243;BME280;50118;53.232;8.252;2022-11-15T03:16:20;100777.56;;;5.69;100.00
58243;BME280;50118;53.232;8.252;2022-11-15T03:18:56;100775.41;;;5.74;100.00
58243;BME280;50118;53.232;8.252;2022-11-15T03:21:24;100773.94;;;5.70;100.00
58243;BME280;50118;53.232;8.252;2022-11-15T03:23:51;100775.41;;;5.74;100.00
58243;BME280;50118;53.232;8.252;2022-11-15T03:26:19;100771.47;;;5.79;100.00
58243;BME280;50118;53.232;8.252;2022-11-15T03:28:56;100771.13;;;5.84;100.00
58243;BME280;50118;53.232;8.252;2022-11-15T03:31:25;100771.34;;;5.81;100.00
58243;BME280;50118;53.232;8.252;2022-11-15T03:34:21;100766.22;;;5.91;100.00
58243;BME280;50118;53.232;8.252;2022-11-15T03:36:52;100765.16;;;5.93;100.00
58243;BME280;50118;53.232;8.252;2022-11-15T03:39:18;100765.03;;;5.95;100.00
58243;BME280;50118;53.232;8.252;2022-11-15T03:47:20;100753.66;;;6.06;100.00
58243;BME280;50118;53.232;8.252;2022-11-15T03:49:55;100754.88;;;6.13;100.00
58243;BME280;50118;53.232;8.252;2022-11-15T03:52:23;100754.88;;;6.13;100.00
58243;BME280;50118;53.232;8.252;2022-11-15T03:54:56;100746.38;;;6.21;100.00
58243;BME280;50118;53.232;8.252;2022-11-15T03:57:22;100746.72;;;6.16;100.00
58243;BME280;50118;53.232;8.252;2022-11-15T03:59:47;100752.28;;;6.24;100.00
58243;BME280;50118;53.232;8.252;2022-11-15T04:02:13;100752.50;;;6.21;100.00
58243;BME280;50118;53.232;8.252;2022-11-15T04:04:39;100755.66;;;6.26;100.00
58243;BME280;50118;53.232;8.252;2022-11-15T04:07:04;100746.75;;;6.27;100.00
58243;BME280;50118;53.232;8.252;2022-11-15T04:09:30;100745.22;;;6.36;100.00
58243;BME280;50118;53.232;8.252;2022-11-15T04:11:56;100745.34;;;6.57;100.00
58243;BME280;50118;53.232;8.252;2022-11-15T04:14:21;100750.16;;;6.52;100.00
58243;BME280;50118;53.232;8.252;2022-11-15T04:16:46;100745.22;;;6.59;100.00
58243;BME280;50118;53.232;8.252;2022-11-15T04:19:12;100752.69;;;6.53;100.00
58243;BME280;50118;53.232;8.252;2022-11-15T04:21:56;100739.22;;;6.57;100.00
58243;BME280;50118;53.232;8.252;2022-11-15T04:24:40;100747.03;;;6.58;100.00
58243;BME280;50118;53.232;8.252;2022-11-15T04:27:05;100749.91;;;6.55;100.00
58243;BME280;50118;53.232;8.252;2022-11-15T04:29:30;100753.56;;;6.54;100.00
58243;BME280;50118;53.232;8.252;2022-11-15T04:32:06;100749.47;;;6.61;100.00
58243;BME280;50118;53.232;8.252;2022-11-15T04:34:32;100746.59;;;6.64;100.00
58243;BME280;50118;53.232;8.252;2022-11-15T04:36:58;100753.31;;;6.68;100.00
58243;BME280;50118;53.232;8.252;2022-11-15T04:39:39;100754.78;;;6.72;100.00
58243;BME280;50118;53.232;8.252;2022-11-15T04:42:05;100752.34;;;6.69;100.00
58243;BME280;50118;53.232;8.252;2022-11-15T04:44:31;100757.03;;;6.77;100.00
58243;BME280;50118;53.232;8.252;2022-11-15T04:46:56;100761.50;;;6.77;100.00
58243;BME280;50118;53.232;8.252;2022-11-15T04:49:22;100767.28;;;6.82;100.00
58243;BME280;50118;53.232;8.252;2022-11-15T04:51:47;100756.44;;;6.73;100.00
58243;BME280;50118;53.232;8.252;2022-11-15T04:54:13;100750.78;;;6.78;100.00
58243;BME280;50118;53.232;8.252;2022-11-15T04:56:38;100756.56;;;6.83;100.00
58243;BME280;50118;53.232;8.252;2022-11-15T04:59:04;100752.13;;;6.95;100.00
58243;BME280;50118;53.232;8.252;2022-11-15T05:01:29;100757.41;;;6.95;100.00
58243;BME280;50118;53.232;8.252;2022-11-15T05:03:55;100753.53;;;6.99;100.00
58243;BME280;50118;53.232;8.252;2022-11-15T05:06:41;100758.84;;;6.99;100.00
58243;BME280;50118;53.232;8.252;2022-11-15T05:09:07;100749.94;;;7.00;100.00
58243;BME280;50118;53.232;8.252;2022-11-15T05:11:32;100757.53;;;7.05;100.00
58243;BME280;50118;53.232;8.252;2022-11-15T05:13:58;100750.88;;;7.10;100.00
58243;BME280;50118;53.232;8.252;2022-11-15T05:16:23;100747.50;;;7.20;100.00
58243;BME280;50118;53.232;8.252;2022-11-15T05:18:53;100748.94;;;7.13;100.00
58243;BME280;50118;53.232;8.252;2022-11-15T05:21:19;100746.06;;;7.16;100.00
58243;BME280;50118;53.232;8.252;2022-11-15T05:23:44;100747.13;;;7.13;100.00
58243;BME280;50118;53.232;8.252;2022-11-15T05:26:10;100740.88;;;7.14;100.00
58243;BME280;50118;53.232;8.252;2022-11-15T05:28:36;100739.66;;;7.18;100.00
58243;BME280;50118;53.232;8.252;2022-11-15T05:33:31;100731.81;;;7.28;100.00
58243;BME280;50118;53.232;8.252;2022-11-15T05:38:37;100729.19;;;7.28;100.00
58243;BME280;50118;53.232;8.252;2022-11-15T05:41:04;100723.16;;;7.26;100.00
58243;BME280;50118;53.232;8.252;2022-11-15T05:43:32;100720.03;;;7.21;100.00
58243;BME280;50118;53.232;8.252;2022-11-15T05:46:00;100721.97;;;7.19;100.00
58243;BME280;50118;53.232;8.252;2022-11-15T05:48:26;100726.69;;;7.15;100.00
58243;BME280;50118;53.232;8.252;2022-11-15T05:50:52;100725.59;;;7.18;100.00
58243;BME280;50118;53.232;8.252;2022-11-15T05:53:19;100729.19;;;7.17;100.00
58243;BME280;50118;53.232;8.252;2022-11-15T05:55:46;100727.53;;;7.16;100.00
58243;BME280;50118;53.232;8.252;2022-11-15T05:58:12;100723.88;;;7.17;100.00
58243;BME280;50118;53.232;8.252;2022-11-15T06:00:37;100738.59;;;7.21;100.00
58243;BME280;50118;53.232;8.252;2022-11-15T06:03:03;100739.78;;;7.28;100.00
58243;BME280;50118;53.232;8.252;2022-11-15T06:05:28;100734.72;;;7.25;100.00
58243;BME280;50118;53.232;8.252;2022-11-15T06:07:57;100737.13;;;7.28;100.00
58243;BME280;50118;53.232;8.252;2022-11-15T06:10:23;100732.53;;;7.30;100.00
58243;BME280;50118;53.232;8.252;2022-11-15T06:12:56;100734.94;;;7.33;100.00
58243;BME280;50118;53.232;8.252;2022-11-15T06:15:22;100744.81;;;7.42;100.00
58243;BME280;50118;53.232;8.252;2022-11-15T06:17:47;100730.94;;;7.39;100.00
58243;BME280;50118;53.232;8.252;2022-11-15T06:20:13;100743.38;;;7.38;100.00
58243;BME280;50118;53.232;8.252;2022-11-15T06:22:39;100740.72;;;7.38;100.00
58243;BME280;50118;53.232;8.252;2022-11-15T06:25:04;100739.75;;;7.39;100.00
58243;BME280;50118;53.232;8.252;2022-11-15T06:27:30;100747.47;;;7.42;100.00
58243;BME280;50118;53.232;8.252;2022-11-15T06:29:55;100753.69;;;7.53;100.00
58243;BME280;50118;53.232;8.252;2022-11-15T06:32:20;100740.44;;;7.53;100.00
58243;BME280;50118;53.232;8.252;2022-11-15T06:34:46;100736.81;;;7.54;100.00
58243;BME280;50118;53.232;8.252;2022-11-15T06:37:11;100750.75;;;7.67;100.00
58243;BME280;50118;53.232;8.252;2022-11-15T06:39:37;100743.72;;;7.77;100.00
58243;BME280;50118;53.232;8.252;2022-11-15T06:42:02;100745.09;;;7.93;100.00
58243;BME280;50118;53.232;8.252;2022-11-15T06:44:27;100747.50;;;7.96;100.00
58243;BME280;50118;53.232;8.252;2022-11-15T06:46:53;100744.19;;;8.03;100.00
58243;BME280;50118;53.232;8.252;2022-11-15T06:49:18;100747.63;;;8.15;100.00
58243;BME280;50118;53.232;8.252;2022-11-15T06:51:43;100742.59;;;8.12;100.00
58243;BME280;50118;53.232;8.252;2022-11-15T06:54:09;100750.03;;;8.18;100.00
58243;BME280;50118;53.232;8.252;2022-11-15T06:56:34;100746.53;;;8.18;100.00
58243;BME280;50118;53.232;8.252;2022-11-15T06:58:59;100747.13;;;8.21;100.00
58243;BME280;50118;53.232;8.252;2022-11-15T07:01:25;100758.69;;;8.20;100.00
58243;BME280;50118;53.232;8.252;2022-11-15T07:03:50;100758.88;;;8.29;100.00
58243;BME280;50118;53.232;8.252;2022-11-15T07:06:16;100767.50;;;8.42;100.00
58243;BME280;50118;53.232;8.252;2022-11-15T07:08:41;100767.03;;;8.48;100.00
58243;BME280;50118;53.232;8.252;2022-11-15T07:11:07;100767.22;;;8.56;100.00
58243;BME280;50118;53.232;8.252;2022-11-15T07:13:34;100763.56;;;8.57;100.00
58243;BME280;50118;53.232;8.252;2022-11-15T07:16:07;100768.50;;;8.62;100.00
58243;BME280;50118;53.232;8.252;2022-11-15T07:18:34;100771.91;;;8.74;100.00
58243;BME280;50118;53.232;8.252;2022-11-15T07:21:04;100765.34;;;8.78;100.00
58243;BME280;50118;53.232;8.252;2022-11-15T07:23:30;100762.03;;;8.95;100.00
58243;BME280;50118;53.232;8.252;2022-11-15T07:25:57;100754.81;;;8.97;100.00
58243;BME280;50118;53.232;8.252;2022-11-15T07:28:23;100751.75;;;9.12;100.00
58243;BME280;50118;53.232;8.252;2022-11-15T07:30:49;100759.63;;;9.23;100.00
58243;BME280;50118;53.232;8.252;2022-11-15T07:33:14;100757.84;;;9.33;100.00
58243;BME280;50118;53.232;8.252;2022-11-15T07:35:39;100761.91;;;9.38;100.00
58243;BME280;50118;53.232;8.252;2022-11-15T07:38:05;100763.31;;;9.42;100.00
58243;BME280;50118;53.232;8.252;2022-11-15T07:40:31;100756.19;;;9.42;100.00
58243;BME280;50118;53.232;8.252;2022-11-15T07:43:05;100754.25;;;9.54;100.00
58243;BME280;50118;53.232;8.252;2022-11-15T07:45:31;100752.69;;;9.61;100.00
58243;BME280;50118;53.232;8.252;2022-11-15T07:47:59;100748.50;;;9.68;100.00
58243;BME280;50118;53.232;8.252;2022-11-15T07:50:25;100754.66;;;9.79;100.00
58243;BME280;50118;53.232;8.252;2022-11-15T07:52:57;100747.41;;;9.81;100.00
58243;BME280;50118;53.232;8.252;2022-11-15T07:55:24;100757.06;;;9.82;100.00
58243;BME280;50118;53.232;8.252;2022-11-15T07:58:09;100748.25;;;9.81;100.00
58243;BME280;50118;53.232;8.252;2022-11-15T08:00:38;100757.19;;;9.80;100.00
58243;BME280;50118;53.232;8.252;2022-11-15T08:03:12;100759.16;;;9.88;100.00
58243;BME280;50118;53.232;8.252;2022-11-15T08:05:42;100768.25;;;9.85;100.00
58243;BME280;50118;53.232;8.252;2022-11-15T08:08:09;100759.16;;;9.88;100.00
58243;BME280;50118;53.232;8.252;2022-11-15T08:10:36;100750.63;;;9.84;100.00
58243;BME280;50118;53.232;8.252;2022-11-15T08:13:07;100752.41;;;9.84;100.00
58243;BME280;50118;53.232;8.252;2022-11-15T08:15:34;100749.75;;;9.84;100.00
58243;BME280;50118;53.232;8.252;2022-11-15T08:18:03;100749.78;;;9.94;100.00
58243;BME280;50118;53.232;8.252;2022-11-15T08:20:33;100743.47;;;9.95;100.00
58243;BME280;50118;53.232;8.252;2022-11-15T08:23:01;100741.50;;;9.97;100.00
58243;BME280;50118;53.232;8.252;2022-11-15T08:25:29;100740.38;;;9.99;100.00
58243;BME280;50118;53.232;8.252;2022-11-15T08:27:59;100744.88;;;9.99;100.00
58243;BME280;50118;53.232;8.252;2022-11-15T08:30:25;100741.38;;;10.08;100.00
58243;BME280;50118;53.232;8.252;2022-11-15T08:32:52;100742.88;;;10.10;100.00
58243;BME280;50118;53.232;8.252;2022-11-15T08:35:20;100733.34;;;10.18;100.00
58243;BME280;50118;53.232;8.252;2022-11-15T08:37:45;100746.50;;;10.29;100.00
58243;BME280;50118;53.232;8.252;2022-11-15T08:40:14;100754.38;;;10.40;100.00
58243;BME280;50118;53.232;8.252;2022-11-15T08:42:40;100765.03;;;10.40;100.00
58243;BME280;50118;53.232;8.252;2022-11-15T08:45:07;100756.31;;;10.38;100.00
58243;BME280;50118;53.232;8.252;2022-11-15T08:47:44;100754.59;;;10.57;100.00
58243;BME280;50118;53.232;8.252;2022-11-15T08:50:11;100758.25;;;10.56;100.00
58243;BME280;50118;53.232;8.252;2022-11-15T08:52:37;100760.78;;;10.57;100.00
58243;BME280;50118;53.232;8.252;2022-11-15T08:55:24;100755.75;;;10.54;100.00
58243;BME280;50118;53.232;8.252;2022-11-15T08:57:49;100769.47;;;10.50;100.00
58243;BME280;50118;53.232;8.252;2022-11-15T09:00:18;100769.47;;;10.59;100.00
58243;BME280;50118;53.232;8.252;2022-11-15T09:02:45;100768.19;;;10.54;100.00
58243;BME280;50118;53.232;8.252;2022-11-15T09:05:10;100769.75;;;10.46;100.00
58243;BME280;50118;53.232;8.252;2022-11-15T09:07:39;100768.94;;;10.36;100.00
58243;BME280;50118;53.232;8.252;2022-11-15T09:10:05;100766.28;;;10.36;100.00
58243;BME280;50118;53.232;8.252;2022-11-15T09:12:54;100763.34;;;10.39;100.00
58243;BME280;50118;53.232;8.252;2022-11-15T09:15:27;100764.44;;;10.46;100.00
58243;BME280;50118;53.232;8.252;2022-11-15T09:17:52;100766.25;;;10.46;100.00
58243;BME280;50118;53.232;8.252;2022-11-15T09:20:20;100764.44;;;10.46;100.00
58243;BME280;50118;53.232;8.252;2022-11-15T09:26:02;100760.81;;;10.38;100.00
58243;BME280;50118;53.232;8.252;2022-11-15T09:28:32;100756.31;;;10.38;100.00
58243;BME280;50118;53.232;8.252;2022-11-15T09:31:15;100750.59;;;10.33;100.00
58243;BME280;50118;53.232;8.252;2022-11-15T09:33:58;100754.78;;;10.36;100.00
58243;BME280;50118;53.232;8.252;2022-11-15T09:36:49;100759.28;;;10.35;100.00
58243;BME280;50118;53.232;8.252;2022-11-15T09:48:37;100751.16;;;10.74;100.00
58243;BME280;50118;53.232;8.252;2022-11-15T09:51:47;100744.44;;;10.80;100.00
58243;BME280;50118;53.232;8.252;2022-11-15T09:54:48;100746.75;;;10.93;100.00
58243;BME280;50118;53.232;8.252;2022-11-15T10:00:04;100750.19;;;11.03;100.00
58243;BME280;50118;53.232;8.252;2022-11-15T10:03:52;100748.53;;;11.02;100.00
58243;BME280;50118;53.232;8.252;2022-11-15T10:06:23;100744.88;;;11.03;100.00
58243;BME280;50118;53.232;8.252;2022-11-15T10:08:55;100739.25;;;11.06;100.00
58243;BME280;50118;53.232;8.252;2022-11-15T10:11:29;100740.19;;;11.15;100.00
58243;BME280;50118;53.232;8.252;2022-11-15T10:22:38;100725.59;;;11.73;100.00
58243;BME280;50118;53.232;8.252;2022-11-15T10:25:23;100714.31;;;11.79;100.00
58243;BME280;50118;53.232;8.252;2022-11-15T10:28:09;100718.00;;;11.96;100.00
58243;BME280;50118;53.232;8.252;2022-11-15T10:30:41;100721.88;;;12.02;100.00
58243;BME280;50118;53.232;8.252;2022-11-15T10:33:41;100717.66;;;12.17;100.00
58243;BME280;50118;53.232;8.252;2022-11-15T10:39:22;100702.72;;;12.32;100.00
58243;BME280;50118;53.232;8.252;2022-11-15T10:41:47;100705.41;;;12.32;100.00
58243;BME280;50118;53.232;8.252;2022-11-15T10:49:22;100690.31;;;12.23;100.00
58243;BME280;50118;53.232;8.252;2022-11-15T10:52:22;100680.59;;;12.14;100.00
58243;BME280;50118;53.232;8.252;2022-11-15T10:55:26;100687.91;;;12.12;100.00
58243;BME280;50118;53.232;8.252;2022-11-15T10:58:02;100672.63;;;12.22;100.00
58243;BME280;50118;53.232;8.252;2022-11-15T11:00:37;100674.63;;;12.20;100.00
58243;BME280;50118;53.232;8.252;2022-11-15T11:03:25;100667.25;;;12.14;100.00
58243;BME280;50118;53.232;8.252;2022-11-15T11:06:21;100668.91;;;12.15;100.00
58243;BME280;50118;53.232;8.252;2022-11-15T11:11:49;100657.91;;;12.18;100.00
58243;BME280;50118;53.232;8.252;2022-11-15T11:14:29;100658.28;;;12.23;100.00
58243;BME280;50118;53.232;8.252;2022-11-15T11:22:42;100655.09;;;12.54;100.00
58243;BME280;50118;53.232;8.252;2022-11-15T11:25:27;100655.09;;;12.54;100.00
58243;BME280;50118;53.232;8.252;2022-11-15T11:34:00;100646.16;;;12.71;100.00
58243;BME280;50118;53.232;8.252;2022-11-15T11:36:41;100648.00;;;12.71;100.00
58243;BME280;50118;53.232;8.252;2022-11-15T11:47:24;100645.22;;;12.97;100.00
58243;BME280;50118;53.232;8.252;2022-11-15T11:50:03;100642.53;;;12.97;100.00
58243;BME280;50118;53.232;8.252;2022-11-15T11:55:37;100633.38;;;13.00;100.00
58243;BME280;50118;53.232;8.252;2022-11-15T11:58:27;100630.53;;;13.01;100.00
58243;BME280;50118;53.232;8.252;2022-11-15T12:03:50;100630.88;;;13.06;100.00
58243;BME280;50118;53.232;8.252;2022-11-15T12:06:38;100624.06;;;13.20;100.00
58243;BME280;50118;53.232;8.252;2022-11-15T12:09:47;100614.53;;;13.18;100.00
58243;BME280;50118;53.232;8.252;2022-11-15T12:18:27;100601.53;;;13.56;100.00
58243;BME280;50118;53.232;8.252;2022-11-15T12:30:59;100597.84;;;13.65;100.00
58243;BME280;50118;53.232;8.252;2022-11-15T12:36:49;100592.50;;;13.40;100.00
58243;BME280;50118;53.232;8.252;2022-11-15T12:39:16;100590.81;;;13.39;100.00
58243;BME280;50118;53.232;8.252;2022-11-15T12:47:33;100587.16;;;13.32;100.00
58243;BME280;50118;53.232;8.252;2022-11-15T13:03:34;100561.00;;;13.83;98.05
58243;BME280;50118;53.232;8.252;2022-11-15T13:06:02;100565.19;;;13.86;99.37
58243;BME280;50118;53.232;8.252;2022-11-15T13:09:00;100558.81;;;13.95;99.11
58243;BME280;50118;53.232;8.252;2022-11-15T13:17:55;100573.78;;;14.21;90.16
58243;BME280;50118;53.232;8.252;2022-11-15T13:20:31;100571.34;;;14.03;89.34
58243;BME280;50118;53.232;8.252;2022-11-15T13:26:10;100572.31;;;14.10;89.14
58243;BME280;50118;53.232;8.252;2022-11-15T13:28:42;100571.88;;;13.90;88.53
58243;BME280;50118;53.232;8.252;2022-11-15T13:31:23;100576.41;;;13.73;88.57
58243;BME280;50118;53.232;8.252;2022-11-15T13:33:50;100572.75;;;13.74;88.46
58243;BME280;50118;53.232;8.252;2022-11-15T13:36:26;100573.41;;;13.76;88.92
58243;BME280;50118;53.232;8.252;2022-11-15T13:39:11;100579.91;;;13.74;88.86
58243;BME280;50118;53.232;8.252;2022-11-15T13:41:46;100571.41;;;13.62;89.34
58243;BME280;50118;53.232;8.252;2022-11-15T13:44:38;100565.38;;;13.60;88.88
58243;BME280;50118;53.232;8.252;2022-11-15T13:47:13;100569.75;;;13.69;88.56
58243;BME280;50118;53.232;8.252;2022-11-15T13:49:39;100560.38;;;13.65;88.73
58243;BME280;50118;53.232;8.252;2022-11-15T13:52:07;100556.84;;;13.73;88.62
58243;BME280;50118;53.232;8.252;2022-11-15T13:54:38;100563.53;;;13.69;88.49
58243;BME280;50118;53.232;8.252;2022-11-15T14:00:37;100558.72;;;13.64;88.45
58243;BME280;50118;53.232;8.252;2022-11-15T14:06:30;100553.19;;;13.41;89.80
58243;BME280;50118;53.232;8.252;2022-11-15T14:09:49;100550.69;;;13.23;91.70
58243;BME280;50118;53.232;8.252;2022-11-15T14:15:19;100539.81;;;13.16;92.04
58243;BME280;50118;53.232;8.252;2022-11-15T14:17:40;100532.78;;;13.07;92.06
58243;BME280;50118;53.232;8.252;2022-11-15T14:20:39;100530.41;;;12.79;93.08
58243;BME280;50118;53.232;8.252;2022-11-15T14:25:57;100533.56;;;12.58;95.06
58243;BME280;50118;53.232;8.252;2022-11-15T14:30:48;100533.13;;;12.28;96.33
58243;BME280;50118;53.232;8.252;2022-11-15T14:33:19;100538.22;;;12.13;98.06
58243;BME280;50118;53.232;8.252;2022-11-15T14:35:46;100538.03;;;11.99;99.52
58243;BME280;50118;53.232;8.252;2022-11-15T14:38:12;100530.91;;;11.89;99.00
58243;BME280;50118;53.232;8.252;2022-11-15T14:40:37;100539.53;;;11.83;100.00
58243;BME280;50118;53.232;8.252;2022-11-15T14:43:03;100542.72;;;11.78;99.79
58243;BME280;50118;53.232;8.252;2022-11-15T14:45:28;100536.94;;;11.65;99.73
58243;BME280;50118;53.232;8.252;2022-11-15T14:47:54;100531.41;;;11.58;100.00
58243;BME280;50118;53.232;8.252;2022-11-15T14:50:21;100529.50;;;11.51;100.00
58243;BME280;50118;53.232;8.252;2022-11-15T14:52:48;100531.41;;;11.32;100.00
58243;BME280;50118;53.232;8.252;2022-11-15T14:55:44;100522.16;;;11.27;100.00
58243;BME280;50118;53.232;8.252;2022-11-15T14:58:12;100514.09;;;11.18;100.00
58243;BME280;50118;53.232;8.252;2022-11-15T15:01:25;100508.72;;;10.92;100.00
58243;BME280;50118;53.232;8.252;2022-11-15T15:03:51;100507.75;;;10.75;100.00
58243;BME280;50118;53.232;8.252;2022-11-15T15:06:18;100509.25;;;10.60;100.00
58243;BME280;50118;53.232;8.252;2022-11-15T15:08:46;100494.13;;;10.42;100.00
58243;BME280;50118;53.232;8.252;2022-11-15T15:11:54;100505.53;;;10.25;100.00
58243;BME280;50118;53.232;8.252;2022-11-15T15:14:22;100496.97;;;10.03;100.00
58243;BME280;50118;53.232;8.252;2022-11-15T15:16:48;100494.78;;;9.89;100.00
58243;BME280;50118;53.232;8.252;2022-11-15T15:19:44;100490.91;;;9.73;100.00
58243;BME280;50118;53.232;8.252;2022-11-15T15:22:14;100491.09;;;9.62;100.00
58243;BME280;50118;53.232;8.252;2022-11-15T15:24:39;100492.41;;;9.48;100.00
58243;BME280;50118;53.232;8.252;2022-11-15T15:27:04;100487.13;;;9.29;100.00
58243;BME280;50118;53.232;8.252;2022-11-15T15:29:30;100470.78;;;9.14;100.00
58243;BME280;50118;53.232;8.252;2022-11-15T15:31:55;100482.97;;;9.07;100.00
58243;BME280;50118;53.232;8.252;2022-11-15T15:34:21;100476.53;;;8.90;100.00
58243;BME280;50118;53.232;8.252;2022-11-15T15:36:46;100477.41;;;8.81;100.00
58243;BME280;50118;53.232;8.252;2022-11-15T15:39:12;100466.91;;;8.89;100.00
58243;BME280;50118;53.232;8.252;2022-11-15T15:41:37;100472.91;;;8.81;100.00
58243;BME280;50118;53.232;8.252;2022-11-15T15:44:02;100467.59;;;8.71;100.00
58243;BME280;50118;53.232;8.252;2022-11-15T15:46:28;100469.56;;;8.69;100.00
58243;BME280;50118;53.232;8.252;2022-11-15T15:48:53;100457.28;;;8.58;100.00
58243;BME280;50118;53.232;8.252;2022-11-15T15:51:19;100460.06;;;8.47;100.00
58243;BME280;50118;53.232;8.252;2022-11-15T15:53:44;100454.56;;;8.39;100.00